Time;durP1;ratioP1;P1;durP2;ratioP2;P2;SDS_P1;SDS_P2;PMS_P1;PMS_P2;Temp;Humidity;BMP_temperature;BMP_pressure;BME280_temperature;BME280_humidity;BME280_pressure;Samples;Min_cycle;Max_cycle;Signal;HPM_P1;HPM_P2
2021/12/27 00:00:46;;;;;;;11.15;6.85;;;;;;;-3.72;79.23;100654.72;2072396;28;43289;-62
2021/12/27 00:01:50;;;;;;;11.50;6.25;;;;;;;-3.70;78.62;100652.16;2072417;28;46377;-62
2021/12/27 00:02:56;;;;;;;11.80;7.18;;;;;;;-3.69;78.19;100652.22;2072563;28;27832;-63
2021/12/27 00:03:58;;;;;;;11.45;6.57;;;;;;;-3.68;78.56;100648.75;2071742;28;46443;-62
2021/12/27 00:05:00;;;;;;;13.68;7.18;;;;;;;-3.66;78.88;100646.16;2072355;28;43135;-62
2021/12/27 00:06:03;;;;;;;15.07;7.13;;;;;;;-3.65;78.26;100647.97;2071633;28;45663;-62
2021/12/27 00:07:05;;;;;;;14.52;7.80;;;;;;;-3.63;78.50;100645.41;2072637;28;44806;-64
2021/12/27 00:08:07;;;;;;;11.60;6.90;;;;;;;-3.63;79.05;100638.41;2072531;28;32379;-64
2021/12/27 00:09:11;;;;;;;13.30;6.97;;;;;;;-3.62;78.17;100624.50;2071575;28;45216;-62
2021/12/27 00:10:16;;;;;;;15.38;7.80;;;;;;;-3.61;78.11;100649.81;2072154;28;44655;-63
2021/12/27 00:11:19;;;;;;;10.52;6.65;;;;;;;-3.59;78.40;100621.97;2072675;28;20046;-62
2021/12/27 00:12:21;;;;;;;11.38;6.78;;;;;;;-3.60;78.68;100628.06;2071943;28;45312;-61
2021/12/27 00:13:22;;;;;;;14.30;7.35;;;;;;;-3.59;78.61;100637.66;2072562;28;42541;-63
2021/12/27 00:14:24;;;;;;;11.07;6.60;;;;;;;-3.57;78.43;100629.84;2072213;28;44558;-64
2021/12/27 00:15:26;;;;;;;13.60;7.25;;;;;;;-3.57;78.50;100629.84;2072210;28;44459;-63
2021/12/27 00:16:28;;;;;;;12.18;6.80;;;;;;;-3.56;78.41;100622.06;2071989;28;39693;-64
2021/12/27 00:17:29;;;;;;;11.13;6.40;;;;;;;-3.54;78.20;100619.50;2072270;28;46769;-63
2021/12/27 00:18:31;;;;;;;12.80;7.05;;;;;;;-3.56;78.58;100622.06;2072168;28;44611;-64
2021/12/27 00:19:36;;;;;;;11.77;6.78;;;;;;;-3.54;78.00;100620.38;2072413;28;44042;-63
2021/12/27 00:20:38;;;;;;;11.27;7.18;;;;;;;-3.54;77.71;100620.38;2072391;28;45972;-63
2021/12/27 00:21:40;;;;;;;13.05;6.93;;;;;;;-3.54;77.95;100619.50;2072058;28;30073;-63
2021/12/27 00:22:45;;;;;;;11.88;7.05;;;;;;;-3.53;77.80;100610.81;2071881;28;46692;-63
2021/12/27 00:23:47;;;;;;;12.65;7.30;;;;;;;-3.53;77.77;100610.81;2079502;28;44154;-63
2021/12/27 00:24:50;;;;;;;11.40;7.07;;;;;;;-3.52;77.45;100607.34;2080274;28;20050;-63
2021/12/27 00:25:52;;;;;;;13.10;7.30;;;;;;;-3.53;77.98;100610.81;2071733;28;45805;-64
2021/12/27 00:26:54;;;;;;;13.00;7.38;;;;;;;-3.51;78.19;100616.97;2070869;28;43440;-63
2021/12/27 00:27:57;;;;;;;12.38;7.28;;;;;;;-3.52;77.80;100608.22;2079670;28;40930;-63
2021/12/27 00:28:58;;;;;;;11.43;7.15;;;;;;;-3.52;78.00;100605.59;2080480;28;27548;-63
2021/12/27 00:30:00;;;;;;;12.73;6.95;;;;;;;-3.50;78.02;100597.78;2071927;28;45740;-63
2021/12/27 00:31:05;;;;;;;12.02;7.65;;;;;;;-3.51;78.20;100596.91;2071999;28;45944;-63
2021/12/27 00:32:07;;;;;;;11.57;6.75;;;;;;;-3.51;78.04;100596.03;2072466;28;45658;-63
2021/12/27 00:33:09;;;;;;;9.55;5.97;;;;;;;-3.51;78.28;100594.28;2072079;28;44005;-64
2021/12/27 00:34:11;;;;;;;13.48;7.50;;;;;;;-3.51;78.09;100589.06;2071702;28;47073;-63
2021/12/27 00:35:15;;;;;;;13.25;7.70;;;;;;;-3.50;78.10;100593.47;2072132;28;44397;-63
2021/12/27 00:36:16;;;;;;;12.63;7.18;;;;;;;-3.51;78.10;100583.84;2071704;28;46549;-64
2021/12/27 00:37:18;;;;;;;14.43;7.60;;;;;;;-3.51;78.23;100589.06;2072435;28;43041;-63
2021/12/27 00:38:20;;;;;;;14.05;7.18;;;;;;;-3.50;78.44;100580.38;2072610;28;29046;-63
2021/12/27 00:39:22;;;;;;;12.48;7.38;;;;;;;-3.51;77.78;100583.84;2071751;28;45998;-63
2021/12/27 00:40:23;;;;;;;12.95;6.75;;;;;;;-3.52;77.74;100586.41;2072223;28;45451;-63
2021/12/27 00:41:25;;;;;;;12.15;7.20;;;;;;;-3.51;78.50;100586.44;2072355;28;46233;-63
2021/12/27 00:42:27;;;;;;;12.43;6.40;;;;;;;-3.52;78.38;100583.78;2072080;28;42117;-64
2021/12/27 00:43:28;;;;;;;11.60;6.80;;;;;;;-3.54;78.09;100581.13;2072428;28;44029;-63
2021/12/27 00:44:31;;;;;;;11.93;7.22;;;;;;;-3.55;77.95;100568.91;2071829;28;44425;-63
2021/12/27 00:45:32;;;;;;;12.88;7.00;;;;;;;-3.57;78.30;100573.22;2071551;28;45337;-63
2021/12/27 00:46:37;;;;;;;11.50;6.47;;;;;;;-3.54;78.33;100573.28;2072496;28;29716;-63
2021/12/27 00:47:39;;;;;;;13.50;7.18;;;;;;;-3.55;78.69;100574.13;2072219;28;43211;-63
2021/12/27 00:48:41;;;;;;;12.77;6.75;;;;;;;-3.55;78.65;100576.75;2071694;28;45421;-63
2021/12/27 00:49:42;;;;;;;12.60;7.03;;;;;;;-3.55;78.39;100565.38;2071675;28;44785;-63
2021/12/27 00:50:45;;;;;;;12.82;7.28;;;;;;;-3.55;78.29;100574.13;2072621;28;28130;-63
2021/12/27 00:51:47;;;;;;;12.88;7.15;;;;;;;-3.56;78.03;100569.72;2071114;28;46305;-63
2021/12/27 00:52:50;;;;;;;11.60;6.20;;;;;;;-3.55;78.38;100568.91;2072211;28;42370;-63
2021/12/27 00:53:51;;;;;;;12.68;7.40;;;;;;;-3.58;79.04;100555.72;2072489;28;45502;-63
2021/12/27 00:54:53;;;;;;;13.70;7.00;;;;;;;-3.59;79.03;100556.56;2072147;28;46355;-63
2021/12/27 00:55:55;;;;;;;12.25;6.82;;;;;;;-3.57;78.82;100562.75;2072099;28;44726;-63
2021/12/27 00:56:57;;;;;;;12.35;7.20;;;;;;;-3.58;79.00;100560.94;2071946;28;44066;-63
2021/12/27 00:57:58;;;;;;;14.02;7.25;;;;;;;-3.57;78.81;100553.97;2071997;28;45704;-64
2021/12/27 00:59:02;;;;;;;12.52;7.10;;;;;;;-3.57;78.96;100560.13;2072407;28;26740;-63
2021/12/27 01:00:12;;;;;;;10.65;6.65;;;;;;;-3.57;78.24;100559.22;2071892;28;46240;-64
2021/12/27 01:01:13;;;;;;;12.95;6.93;;;;;;;-3.56;78.40;100558.38;2070980;28;44635;-63
2021/12/27 01:02:15;;;;;;;10.90;6.32;;;;;;;-3.55;78.92;100561.06;2071798;28;45453;-63
2021/12/27 01:03:20;;;;;;;11.95;6.97;;;;;;;-3.55;78.46;100558.44;2072430;28;46184;-64
2021/12/27 01:04:22;;;;;;;11.38;6.75;;;;;;;-3.56;78.79;100561.00;2072562;28;30660;-63
2021/12/27 01:05:27;;;;;;;11.43;6.35;;;;;;;-3.54;78.27;100554.94;2072064;28;46297;-63
2021/12/27 01:06:31;;;;;;;11.48;7.22;;;;;;;-3.55;78.51;100549.66;2071226;28;43066;-63
2021/12/27 01:07:33;;;;;;;14.73;7.47;;;;;;;-3.55;78.90;100550.59;2071664;28;44398;-63
2021/12/27 01:08:36;;;;;;;13.18;6.82;;;;;;;-3.54;79.06;100541.00;2071779;28;44428;-63
2021/12/27 01:14:37;;;;;;;10.35;6.40;;;;;;;-3.53;78.69;100548.88;2071863;28;45637;-63
2021/12/27 01:16:44;;;;;;;13.52;6.97;;;;;;;-3.52;78.65;100542.78;2071576;28;44543;-64
2021/12/27 01:17:49;;;;;;;11.20;7.05;;;;;;;-3.51;78.47;100556.78;2072675;28;20165;-63
2021/12/27 01:18:51;;;;;;;10.45;6.57;;;;;;;-3.50;78.30;100546.38;2071339;28;45792;-63
2021/12/27 01:19:53;;;;;;;12.88;6.70;;;;;;;-3.48;78.78;100544.66;2072211;28;45194;-63
2021/12/27 01:20:54;;;;;;;10.55;5.80;;;;;;;-3.49;78.47;100540.28;2072056;28;43278;-63
2021/12/27 01:21:56;;;;;;;11.80;6.53;;;;;;;-3.48;77.85;100538.56;2071866;28;45598;-63
2021/12/27 01:23:01;;;;;;;14.73;7.47;;;;;;;-3.46;78.41;100539.47;2072589;28;29695;-63
2021/12/27 01:24:05;;;;;;;12.45;6.95;;;;;;;-3.46;78.36;100540.38;2071772;28;42941;-64
2021/12/27 01:25:10;;;;;;;10.63;6.13;;;;;;;-3.45;78.31;100533.38;2073019;28;21012;-63
2021/12/27 01:26:14;;;;;;;13.25;6.70;;;;;;;-3.46;78.20;100539.47;2080440;28;20861;-63
2021/12/27 01:27:18;;;;;;;11.90;6.68;;;;;;;-3.46;78.60;100542.97;2078592;28;45442;-64
2021/12/27 01:28:20;;;;;;;12.68;7.13;;;;;;;-3.42;78.23;100548.31;2071953;28;30532;-63
2021/12/27 01:29:22;;;;;;;11.02;6.88;;;;;;;-3.42;78.61;100551.81;2071640;28;45456;-63
2021/12/27 01:30:24;;;;;;;10.55;6.43;;;;;;;-3.42;78.66;100530.00;2071618;28;46648;-63
2021/12/27 01:31:25;;;;;;;11.73;6.18;;;;;;;-3.41;78.30;100531.75;2071419;28;44733;-63
2021/12/27 01:32:36;;;;;;;12.60;6.70;;;;;;;-3.42;78.61;100543.06;2071643;28;45316;-64
2021/12/27 01:33:39;;;;;;;11.85;7.07;;;;;;;-3.41;78.68;100534.34;2071846;28;45824;-63
2021/12/27 01:34:43;;;;;;;10.65;6.80;;;;;;;-3.40;77.56;100538.75;2071649;28;45320;-63
2021/12/27 01:35:46;;;;;;;11.25;6.80;;;;;;;-3.42;77.74;100541.34;2071633;28;45129;-63
2021/12/27 01:36:48;;;;;;;13.60;7.18;;;;;;;-3.40;78.51;100541.38;2071702;28;43291;-64
2021/12/27 01:37:53;;;;;;;14.05;7.40;;;;;;;-3.40;78.05;100534.41;2071610;28;45201;-63
2021/12/27 01:38:55;;;;;;;11.70;6.95;;;;;;;-3.39;78.45;100541.44;2071717;28;44512;-64
2021/12/27 01:39:57;;;;;;;11.98;6.75;;;;;;;-3.38;78.17;100537.06;2072287;28;35688;-63
2021/12/27 01:41:01;;;;;;;11.63;6.32;;;;;;;-3.38;77.87;100544.91;2070884;28;45576;-63
2021/12/27 01:42:03;;;;;;;11.30;6.65;;;;;;;-3.39;77.89;100549.28;2072202;28;30956;-64
2021/12/27 01:43:12;;;;;;;13.77;7.90;;;;;;;-3.38;77.70;100543.19;2071897;28;45266;-63
2021/12/27 01:44:14;;;;;;;10.98;6.53;;;;;;;-3.36;77.94;100551.06;2071680;28;46293;-63
2021/12/27 01:45:16;;;;;;;11.50;6.57;;;;;;;-3.36;78.58;100546.72;2071683;28;44862;-63
2021/12/27 01:46:23;;;;;;;11.05;6.75;;;;;;;-3.37;78.13;100544.97;2071541;28;44420;-63
2021/12/27 01:47:27;;;;;;;10.98;6.43;;;;;;;-3.36;78.46;100545.84;2079934;28;30428;-63
2021/12/27 01:48:37;;;;;;;12.18;6.95;;;;;;;-3.33;77.65;100545.94;2077281;28;45321;-64
2021/12/27 01:49:39;;;;;;;13.77;7.13;;;;;;;-3.33;78.08;100551.16;2071952;28;46731;-64
2021/12/27 01:50:44;;;;;;;13.05;6.70;;;;;;;-3.33;77.73;100545.94;2072332;28;30656;-63
2021/12/27 01:51:46;;;;;;;11.80;6.97;;;;;;;-3.33;78.11;100545.94;2071369;28;44503;-63
2021/12/27 01:52:48;;;;;;;14.13;7.07;;;;;;;-3.32;77.76;100537.22;2078992;28;45956;-63
2021/12/27 01:53:50;;;;;;;11.57;7.05;;;;;;;-3.32;77.90;100545.06;2079115;28;45464;-64
2021/12/27 01:54:52;;;;;;;12.70;7.38;;;;;;;-3.33;77.83;100541.56;2071649;28;46546;-63
2021/12/27 01:55:56;;;;;;;10.98;6.85;;;;;;;-3.33;77.57;100533.72;2072858;28;20046;-64
2021/12/27 01:57:00;;;;;;;13.43;7.38;;;;;;;-3.33;77.87;100544.19;2070578;28;43400;-63
2021/12/27 01:58:03;;;;;;;12.05;6.85;;;;;;;-3.31;78.08;100539.00;2075563;28;44421;-63
2021/12/27 01:59:05;;;;;;;14.57;7.30;;;;;;;-3.31;78.26;100545.13;2078676;28;45543;-63
2021/12/27 02:00:08;;;;;;;12.00;6.68;;;;;;;-3.30;77.99;100546.03;2071387;28;44911;-63
2021/12/27 02:01:18;;;;;;;12.30;7.10;;;;;;;-3.29;78.10;100550.41;2072031;28;20054;-63
2021/12/27 02:02:20;;;;;;;13.23;7.07;;;;;;;-3.29;77.65;100547.78;2071366;28;43464;-63
2021/12/27 02:03:27;;;;;;;11.00;6.88;;;;;;;-3.28;78.14;100546.94;2071298;28;45234;-63
2021/12/27 02:04:28;;;;;;;12.15;7.40;;;;;;;-3.28;78.32;100534.72;2071774;28;42329;-63
2021/12/27 02:05:31;;;;;;;12.57;7.13;;;;;;;-3.27;78.08;100540.84;2071630;28;45651;-64
2021/12/27 02:06:33;;;;;;;12.02;7.55;;;;;;;-3.27;78.29;100536.53;2071472;28;43906;-63
2021/12/27 02:07:34;;;;;;;13.45;7.00;;;;;;;-3.26;78.30;100542.63;2070839;28;45173;-63
2021/12/27 02:08:41;;;;;;;13.02;7.35;;;;;;;-3.25;78.47;100533.91;2071333;28;47692;-63
2021/12/27 02:09:56;;;;;;;14.02;7.35;;;;;;;-3.25;78.45;100539.16;2072831;28;20990;-63
2021/12/27 02:10:58;;;;;;;10.50;6.43;;;;;;;-3.23;78.16;100540.09;2071070;28;43172;-63
2021/12/27 02:12:05;;;;;;;12.52;6.95;;;;;;;-3.23;78.26;100547.97;2071399;28;28556;-63
2021/12/27 02:13:09;;;;;;;13.40;7.47;;;;;;;-3.23;78.24;100542.72;2069503;28;44287;-64
2021/12/27 02:14:11;;;;;;;12.40;7.35;;;;;;;-3.23;78.00;100547.97;2070818;28;44939;-63
2021/12/27 02:15:16;;;;;;;14.70;7.93;;;;;;;-3.25;78.14;100533.91;2070982;28;44774;-63
2021/12/27 02:16:21;;;;;;;11.80;7.45;;;;;;;-3.22;78.04;100543.59;2062686;28;44297;-63
2021/12/27 02:17:24;;;;;;;13.35;6.90;;;;;;;-3.22;78.30;100541.84;2071175;28;44641;-63
2021/12/27 02:18:26;;;;;;;12.60;7.20;;;;;;;-3.21;78.22;100532.25;2070152;28;44491;-63
2021/12/27 02:19:28;;;;;;;12.60;6.78;;;;;;;-3.20;78.37;100531.44;2063424;28;46720;-64
2021/12/27 02:20:35;;;;;;;10.93;6.90;;;;;;;-3.20;78.61;100539.28;2063306;28;44478;-63
2021/12/27 02:21:41;;;;;;;12.80;7.65;;;;;;;-3.20;78.28;100534.06;2064675;28;20073;-63
2021/12/27 02:22:45;;;;;;;13.77;7.15;;;;;;;-3.20;78.42;100536.66;2071652;28;43475;-63
2021/12/27 02:23:49;;;;;;;13.10;7.82;;;;;;;-3.20;78.69;100529.69;2072042;28;28330;-64
2021/12/27 02:24:51;;;;;;;15.10;7.05;;;;;;;-3.19;77.93;100523.63;2071225;28;44925;-63
2021/12/27 02:25:53;;;;;;;13.15;7.75;;;;;;;-3.18;78.61;100525.38;2071493;28;43475;-63
2021/12/27 02:26:54;;;;;;;12.60;7.70;;;;;;;-3.18;77.88;100521.88;2071722;28;44298;-63
2021/12/27 02:27:58;;;;;;;12.63;6.78;;;;;;;-3.18;78.30;100532.34;2070785;28;44941;-64
2021/12/27 02:29:02;;;;;;;14.45;8.18;;;;;;;-3.18;78.68;100530.63;2072139;28;32754;-63
2021/12/27 02:30:09;;;;;;;12.15;7.22;;;;;;;-3.18;78.65;100529.75;2071676;28;44282;-63
2021/12/27 02:31:10;;;;;;;11.30;7.13;;;;;;;-3.17;78.50;100523.66;2071260;28;44651;-63
2021/12/27 02:32:15;;;;;;;13.20;7.95;;;;;;;-3.15;78.54;100521.97;2071704;28;30610;-64
2021/12/27 02:33:16;;;;;;;13.88;7.75;;;;;;;-3.16;78.72;100528.94;2071589;28;42877;-63
2021/12/27 02:34:20;;;;;;;12.23;7.68;;;;;;;-3.15;78.55;100527.22;2072650;28;20550;-63
2021/12/27 02:35:27;;;;;;;14.15;7.57;;;;;;;-3.15;78.54;100532.44;2070617;28;44047;-64
2021/12/27 02:36:29;;;;;;;12.80;7.47;;;;;;;-3.16;78.42;100528.94;2071424;28;45822;-63
2021/12/27 02:37:30;;;;;;;14.38;7.10;;;;;;;-3.15;78.59;100520.22;2071384;28;46686;-63
2021/12/27 02:38:36;;;;;;;12.82;7.57;;;;;;;-3.16;78.86;100521.09;2071962;28;29812;-63
2021/12/27 02:39:38;;;;;;;12.75;7.88;;;;;;;-3.16;78.70;100521.09;2079187;28;43488;-63
2021/12/27 02:40:41;;;;;;;13.27;7.38;;;;;;;-3.14;78.55;100521.09;2077406;28;45578;-63
2021/12/27 02:41:43;;;;;;;12.48;7.53;;;;;;;-3.16;78.66;100518.47;2071442;28;44709;-63
2021/12/27 02:43:17;;;;;;;15.88;7.80;;;;;;;-3.14;78.79;100515.88;2071246;28;45028;-63
2021/12/27 02:44:19;;;;;;;12.57;7.55;;;;;;;-3.16;79.26;100515.84;2070961;28;48055;-64
2021/12/27 02:45:22;;;;;;;14.68;7.78;;;;;;;-3.14;78.86;100519.41;2071420;28;44454;-63
2021/12/27 02:46:24;;;;;;;13.77;7.75;;;;;;;-3.14;78.84;100502.78;2071445;28;44117;-63
2021/12/27 02:47:25;;;;;;;14.07;7.53;;;;;;;-3.16;78.68;100510.63;2071531;28;46258;-64
2021/12/27 02:48:40;;;;;;;12.30;7.38;;;;;;;-3.14;78.79;100506.31;2071332;28;45596;-64
2021/12/27 02:49:42;;;;;;;14.32;7.90;;;;;;;-3.14;78.99;100497.53;2071464;28;44240;-63
2021/12/27 02:50:46;;;;;;;14.90;7.40;;;;;;;-3.15;78.98;100491.44;2072453;28;45967;-63
2021/12/27 02:51:48;;;;;;;13.65;7.45;;;;;;;-3.14;78.33;100490.59;2081616;28;20103;-63
2021/12/27 02:52:50;;;;;;;12.68;7.65;;;;;;;-3.12;78.62;100503.72;2079730;28;45211;-63
2021/12/27 02:53:52;;;;;;;10.70;6.88;;;;;;;-3.13;78.96;100494.97;2072645;28;43363;-64
2021/12/27 02:54:54;;;;;;;14.80;8.25;;;;;;;-3.13;78.83;100502.81;2073803;28;20826;-63
2021/12/27 02:56:00;;;;;;;13.20;8.18;;;;;;;-3.13;79.02;100502.81;2072587;28;46777;-64
2021/12/27 02:57:02;;;;;;;12.02;7.63;;;;;;;-3.14;79.15;100497.53;2072425;28;44156;-63
2021/12/27 02:58:07;;;;;;;15.10;8.30;;;;;;;-3.12;78.78;100514.19;2071952;28;43882;-64
2021/12/27 02:59:24;;;;;;;15.82;8.07;;;;;;;-3.13;78.84;100502.81;2072375;28;44544;-63
2021/12/27 03:00:33;;;;;;;14.35;8.23;;;;;;;-3.12;78.80;100501.13;2072765;28;44051;-63
2021/12/27 03:01:35;;;;;;;13.50;7.95;;;;;;;-3.13;78.82;100494.97;2072618;28;46016;-64
2021/12/27 03:02:39;;;;;;;13.95;7.80;;;;;;;-3.12;78.87;100499.38;2073146;28;25073;-63
2021/12/27 03:03:41;;;;;;;14.93;7.93;;;;;;;-3.12;78.87;100499.38;2072684;28;46498;-64
2021/12/27 03:04:45;;;;;;;12.95;7.57;;;;;;;-3.15;78.72;100491.44;2072650;28;43096;-63
2021/12/27 03:05:49;;;;;;;15.82;7.60;;;;;;;-3.13;78.94;100501.94;2072681;28;30824;-64
2021/12/27 03:06:51;;;;;;;12.68;7.05;;;;;;;-3.14;78.63;100495.84;2071294;28;47152;-63
2021/12/27 03:07:56;;;;;;;11.70;7.47;;;;;;;-3.15;78.52;100501.03;2072384;28;45065;-64
2021/12/27 03:08:58;;;;;;;14.25;7.20;;;;;;;-3.14;78.84;100489.69;2072193;28;46657;-64
2021/12/27 03:10:00;;;;;;;13.65;7.90;;;;;;;-3.14;78.51;100487.97;2072717;28;42104;-64
2021/12/27 03:11:06;;;;;;;13.77;7.30;;;;;;;-3.14;78.65;100490.59;2073247;28;34446;-63
2021/12/27 03:12:14;;;;;;;13.35;8.15;;;;;;;-3.14;78.93;100493.22;2071654;28;45126;-63
2021/12/27 03:13:32;;;;;;;15.20;7.88;;;;;;;-3.14;78.95;100495.84;2072982;28;20092;-64
2021/12/27 03:14:34;;;;;;;14.85;6.97;;;;;;;-3.13;78.85;100492.34;2072847;28;42646;-64
2021/12/27 03:15:38;;;;;;;15.10;7.35;;;;;;;-3.13;79.02;100488.84;2072734;28;44432;-63
2021/12/27 03:16:40;;;;;;;15.18;7.95;;;;;;;-3.14;78.76;100480.13;2072573;28;45729;-63
2021/12/27 03:17:47;;;;;;;12.18;6.90;;;;;;;-3.12;78.72;100482.78;2072602;28;46541;-64
2021/12/27 03:18:52;;;;;;;14.35;7.90;;;;;;;-3.14;78.70;100474.88;2072819;28;34406;-64
2021/12/27 03:19:54;;;;;;;13.23;7.68;;;;;;;-3.14;78.84;100480.13;2079336;28;45685;-64
2021/12/27 03:20:56;;;;;;;11.95;7.20;;;;;;;-3.14;78.73;100482.75;2079514;28;44656;-63
2021/12/27 03:22:01;;;;;;;14.02;8.05;;;;;;;-3.16;78.48;100476.59;2072937;28;28498;-64
2021/12/27 03:23:02;;;;;;;11.65;7.63;;;;;;;-3.16;78.64;100479.19;2072133;28;47637;-64
2021/12/27 03:24:05;;;;;;;12.98;7.47;;;;;;;-3.16;78.63;100487.06;2072427;28;44680;-63
2021/12/27 03:25:26;;;;;;;12.27;7.57;;;;;;;-3.15;78.76;100487.94;2073447;28;20093;-63
2021/12/27 03:26:27;;;;;;;11.68;7.18;;;;;;;-3.16;79.39;100478.28;2071358;28;44612;-63
2021/12/27 03:27:29;;;;;;;13.13;7.93;;;;;;;-3.16;78.93;100486.16;2073425;28;30474;-63
2021/12/27 03:28:32;;;;;;;12.73;7.75;;;;;;;-3.16;78.96;100484.44;2072134;28;46271;-63
2021/12/27 03:29:36;;;;;;;13.32;8.20;;;;;;;-3.16;79.28;100486.16;2072790;28;43295;-64
2021/12/27 03:30:39;;;;;;;12.55;7.55;;;;;;;-3.18;79.35;100469.53;2072665;28;44303;-64
2021/12/27 03:31:41;;;;;;;11.65;7.38;;;;;;;-3.16;79.49;100481.81;2072444;28;45984;-64
2021/12/27 03:32:43;;;;;;;15.57;8.23;;;;;;;-3.17;79.24;100473.91;2072242;28;45160;-63
2021/12/27 03:33:45;;;;;;;16.23;8.20;;;;;;;-3.17;79.28;100468.69;2072532;28;46306;-64
2021/12/27 03:35:03;;;;;;;12.52;7.63;;;;;;;-3.19;79.46;100466.03;2072723;28;43385;-64
2021/12/27 03:36:08;;;;;;;11.95;7.45;;;;;;;-3.17;78.92;100479.16;2072016;28;45922;-63
2021/12/27 03:37:10;;;;;;;13.18;7.22;;;;;;;-3.19;79.51;100473.00;2080054;28;44981;-64
2021/12/27 03:38:12;;;;;;;10.85;6.75;;;;;;;-3.18;79.58;100466.91;2079317;28;43305;-63
2021/12/27 03:39:14;;;;;;;14.43;8.25;;;;;;;-3.21;79.56;100467.72;2072664;28;44266;-63
2021/12/27 03:40:19;;;;;;;12.43;7.35;;;;;;;-3.21;79.87;100470.34;2071958;28;44417;-63
2021/12/27 03:41:25;;;;;;;12.73;7.82;;;;;;;-3.19;79.46;100471.25;2070845;28;30473;-64
2021/12/27 03:42:27;;;;;;;16.42;8.43;;;;;;;-3.20;79.38;100472.09;2064642;28;46624;-64
2021/12/27 03:43:29;;;;;;;13.00;7.70;;;;;;;-3.15;79.33;100474.84;2064468;28;44678;-64
2021/12/27 03:44:30;;;;;;;12.77;7.95;;;;;;;-3.18;79.47;100475.63;2064770;28;33135;-63
2021/12/27 03:45:37;;;;;;;16.48;8.38;;;;;;;-3.18;79.70;100469.53;2064591;28;45993;-63
2021/12/27 03:46:39;;;;;;;14.07;7.95;;;;;;;-3.16;79.55;100481.81;2063727;28;45643;-63
2021/12/27 03:47:40;;;;;;;13.20;7.40;;;;;;;-3.18;79.23;100473.00;2064379;28;45355;-63
2021/12/27 03:48:42;;;;;;;13.63;8.05;;;;;;;-3.17;79.38;100479.16;2063998;28;44757;-63
2021/12/27 03:49:44;;;;;;;13.05;7.88;;;;;;;-3.19;79.75;100479.13;2065090;28;29233;-64
2021/12/27 03:50:46;;;;;;;14.27;8.73;;;;;;;-3.18;79.37;100487.84;2064153;28;45803;-64
2021/12/27 03:51:48;;;;;;;15.27;7.82;;;;;;;-3.18;79.70;100483.50;2063944;28;43930;-63
2021/12/27 03:52:49;;;;;;;14.05;7.22;;;;;;;-3.16;79.38;100480.91;2064265;28;46446;-63
2021/12/27 03:53:52;;;;;;;13.75;7.75;;;;;;;-3.18;79.78;100483.50;2064080;28;45762;-64
2021/12/27 03:54:53;;;;;;;13.65;7.55;;;;;;;-3.17;79.23;100474.78;2064036;28;45538;-63
2021/12/27 03:55:56;;;;;;;12.95;7.53;;;;;;;-3.15;79.33;100480.06;2064396;28;44738;-64
2021/12/27 03:56:58;;;;;;;14.18;7.88;;;;;;;-3.19;79.19;100473.88;2064661;28;44183;-64
2021/12/27 03:58:11;;;;;;;15.55;7.22;;;;;;;-3.19;79.44;100471.25;2063475;28;44296;-63
2021/12/27 03:59:22;;;;;;;12.05;7.38;;;;;;;-3.17;79.13;100466.06;2063782;28;43747;-63
2021/12/27 04:00:47;;;;;;;16.42;7.75;;;;;;;-3.18;79.70;100459.91;2064380;28;45419;-63
2021/12/27 04:01:49;;;;;;;13.43;7.55;;;;;;;-3.20;79.52;100445.91;2062611;28;46646;-63
2021/12/27 04:02:57;;;;;;;11.75;7.15;;;;;;;-3.20;79.79;100448.53;2064014;28;44563;-64
2021/12/27 04:03:58;;;;;;;13.75;7.72;;;;;;;-3.20;79.44;100445.91;2063780;28;45505;-64
2021/12/27 04:05:00;;;;;;;11.13;7.32;;;;;;;-3.19;79.37;100442.47;2064351;28;45805;-63
2021/12/27 04:06:04;;;;;;;13.05;7.95;;;;;;;-3.19;79.79;100444.22;2063958;28;45451;-63
2021/12/27 04:07:09;;;;;;;13.88;8.02;;;;;;;-3.20;79.76;100442.41;2070258;28;46507;-63
2021/12/27 04:08:18;;;;;;;13.98;7.90;;;;;;;-3.21;79.86;100436.31;2071740;28;44618;-63
2021/12/27 04:09:22;;;;;;;12.07;7.97;;;;;;;-3.20;79.33;100434.56;2072599;28;45623;-64
2021/12/27 04:10:24;;;;;;;12.35;7.22;;;;;;;-3.20;79.89;100431.94;2072594;28;43059;-63
2021/12/27 04:11:26;;;;;;;13.95;8.18;;;;;;;-3.21;79.62;100424.94;2072626;28;43893;-64
2021/12/27 04:12:31;;;;;;;15.90;8.20;;;;;;;-3.21;79.91;100420.59;2072263;28;46679;-64
2021/12/27 04:13:36;;;;;;;13.95;7.80;;;;;;;-3.21;79.96;100415.38;2071590;28;43313;-64
2021/12/27 04:14:37;;;;;;;15.35;8.55;;;;;;;-3.21;80.30;100414.44;2072068;28;43347;-63
2021/12/27 04:15:40;;;;;;;13.07;7.20;;;;;;;-3.21;79.97;100410.13;2073544;28;20236;-64
2021/12/27 04:16:42;;;;;;;11.63;7.65;;;;;;;-3.21;79.96;100410.13;2072024;28;45757;-64
2021/12/27 04:17:45;;;;;;;16.08;8.73;;;;;;;-3.22;80.22;100405.72;2073272;28;20035;-63
2021/12/27 04:18:47;;;;;;;14.07;8.23;;;;;;;-3.22;80.17;100408.34;2072248;28;44429;-63
2021/12/27 04:19:49;;;;;;;14.77;8.18;;;;;;;-3.23;80.19;100401.34;2072606;28;45079;-63
2021/12/27 04:20:51;;;;;;;14.98;8.18;;;;;;;-3.23;80.18;100403.06;2072317;28;30325;-64
2021/12/27 04:21:53;;;;;;;13.73;8.38;;;;;;;-3.26;80.71;100399.53;2071880;28;44711;-64
2021/12/27 04:22:55;;;;;;;14.02;7.93;;;;;;;-3.29;80.67;100407.31;2072299;28;44402;-64
2021/12/27 04:23:56;;;;;;;12.82;7.43;;;;;;;-3.29;80.56;100412.53;2072799;28;35507;-64
2021/12/27 04:24:58;;;;;;;14.77;8.77;;;;;;;-3.30;80.84;100399.44;2072083;28;45256;-63
2021/12/27 04:26:00;;;;;;;15.77;8.10;;;;;;;-3.32;80.78;100396.78;2071932;28;37942;-64
2021/12/27 04:27:02;;;;;;;14.82;8.43;;;;;;;-3.35;80.98;100393.19;2072437;28;42150;-64
2021/12/27 04:28:04;;;;;;;15.57;8.43;;;;;;;-3.35;80.73;100399.31;2072722;28;27737;-64
2021/12/27 04:29:06;;;;;;;15.68;9.32;;;;;;;-3.37;81.16;100393.16;2072034;28;47049;-64
2021/12/27 04:30:09;;;;;;;13.77;8.32;;;;;;;-3.38;81.21;100388.75;2071962;28;43891;-63
2021/12/27 04:31:11;;;;;;;13.10;7.72;;;;;;;-3.40;81.20;100382.59;2072198;28;31621;-64
2021/12/27 04:32:16;;;;;;;15.30;8.68;;;;;;;-3.42;81.84;100378.19;2070978;28;44487;-64
2021/12/27 04:33:20;;;;;;;15.77;8.73;;;;;;;-3.44;81.34;100382.50;2071959;28;20116;-63
2021/12/27 04:34:22;;;;;;;14.40;8.20;;;;;;;-3.46;81.82;100383.34;2064081;28;44646;-64
2021/12/27 04:35:24;;;;;;;14.02;8.05;;;;;;;-3.47;81.37;100392.03;2064296;28;43909;-63
2021/12/27 04:36:25;;;;;;;13.85;7.88;;;;;;;-3.49;82.05;100387.63;2064389;28;25891;-63
2021/12/27 04:37:29;;;;;;;14.40;8.32;;;;;;;-3.51;82.25;100394.56;2063783;28;44464;-63
2021/12/27 04:38:30;;;;;;;16.85;8.95;;;;;;;-3.51;81.95;100395.44;2069864;28;44420;-63
2021/12/27 04:39:32;;;;;;;13.73;8.35;;;;;;;-3.52;82.63;100398.88;2071365;28;44363;-63
2021/12/27 04:40:41;;;;;;;13.13;7.32;;;;;;;-3.50;82.51;100399.81;2071098;28;43374;-63
2021/12/27 04:41:43;;;;;;;14.90;8.82;;;;;;;-3.50;81.93;100405.06;2072170;28;44417;-63
2021/12/27 04:42:51;;;;;;;12.45;7.57;;;;;;;-3.50;81.95;100407.69;2072629;28;44549;-63
2021/12/27 04:43:53;;;;;;;13.18;8.05;;;;;;;-3.48;82.27;100400.75;2071579;28;45076;-64
2021/12/27 04:44:55;;;;;;;16.00;8.82;;;;;;;-3.47;82.18;100394.66;2072849;28;29567;-63
2021/12/27 04:45:58;;;;;;;14.07;8.60;;;;;;;-3.46;81.86;100401.66;2071832;28;42110;-63
2021/12/27 04:47:01;;;;;;;14.63;8.77;;;;;;;-3.46;82.35;100409.50;2072245;28;45706;-63
2021/12/27 04:48:04;;;;;;;14.45;8.63;;;;;;;-3.47;81.97;100401.63;2072139;28;46020;-64
2021/12/27 04:49:06;;;;;;;14.40;8.07;;;;;;;-3.44;81.92;100398.22;2072064;28;44099;-64
2021/12/27 04:50:08;;;;;;;14.27;8.45;;;;;;;-3.43;81.95;100410.44;2071970;28;46482;-64
2021/12/27 04:51:10;;;;;;;18.50;9.60;;;;;;;-3.43;82.43;100400.84;2071419;28;44513;-64
2021/12/27 04:52:15;;;;;;;14.23;8.30;;;;;;;-3.41;82.76;100393.94;2072496;28;26754;-64
2021/12/27 04:53:16;;;;;;;15.77;8.75;;;;;;;-3.41;82.32;100395.66;2072243;28;45738;-63
2021/12/27 04:54:18;;;;;;;17.38;8.55;;;;;;;-3.40;82.43;100395.69;2071748;28;44161;-64
2021/12/27 04:55:23;;;;;;;14.57;8.38;;;;;;;-3.39;82.18;100399.19;2072100;28;46517;-63
2021/12/27 04:56:25;;;;;;;16.33;8.90;;;;;;;-3.39;82.46;100399.19;2072204;28;43232;-63
2021/12/27 04:57:28;;;;;;;16.20;8.93;;;;;;;-3.38;82.63;100386.13;2071890;28;45669;-63
2021/12/27 04:58:29;;;;;;;17.27;8.77;;;;;;;-3.37;82.46;100392.28;2072525;28;30505;-63